Time;durP1;ratioP1;P1;durP2;ratioP2;P2;SDS_P1;SDS_P2;PMS_P1;PMS_P2;Temp;Humidity;BMP_temperature;BMP_pressure;BME280_temperature;BME280_humidity;BME280_pressure;Samples;Min_cycle;Max_cycle;Signal;HPM_P1;HPM_P2
2022/08/02 00:01:00;;;;;;;1.67;1.45;;;18.50;94.30;;;;;;625168;230;26549;-67
2022/08/02 00:03:28;;;;;;;2.25;1.70;;;18.50;93.60;;;;;;625069;230;26809;-66
2022/08/02 00:05:55;;;;;;;1.73;1.50;;;18.50;93.60;;;;;;624879;229;26561;-67
2022/08/02 00:08:23;;;;;;;2.10;1.50;;;18.60;93.70;;;;;;624892;229;26815;-67
2022/08/02 00:10:50;;;;;;;3.72;1.73;;;18.60;93.10;;;;;;624851;229;26593;-67
2022/08/02 00:13:17;;;;;;;2.25;1.40;;;18.70;93.30;;;;;;624885;229;26619;-67
2022/08/02 00:15:45;;;;;;;1.50;1.40;;;18.80;92.60;;;;;;624942;230;26605;-67
2022/08/02 00:18:13;;;;;;;1.10;1.10;;;18.90;92.40;;;;;;624856;229;26563;-68
2022/08/02 00:20:41;;;;;;;1.45;1.33;;;18.90;92.20;;;;;;624858;230;26605;-68
2022/08/02 00:23:09;;;;;;;1.48;1.35;;;18.90;92.20;;;;;;624851;230;26602;-68
2022/08/02 00:25:36;;;;;;;1.70;1.60;;;18.90;92.00;;;;;;624910;229;26613;-68
2022/08/02 00:28:03;;;;;;;1.45;1.33;;;19.00;91.70;;;;;;624905;229;26593;-68
2022/08/02 00:30:30;;;;;;;2.08;1.20;;;19.00;91.60;;;;;;624904;229;26591;-68
2022/08/02 00:32:58;;;;;;;2.15;1.50;;;19.00;91.40;;;;;;624799;229;27166;-67
2022/08/02 00:35:25;;;;;;;1.55;1.45;;;19.00;91.30;;;;;;624932;230;26565;-68
2022/08/02 00:37:52;;;;;;;2.20;1.40;;;19.00;90.90;;;;;;624905;224;26764;-68
2022/08/02 00:40:20;;;;;;;1.10;1.10;;;19.00;90.80;;;;;;626386;228;26787;-68
2022/08/02 00:42:47;;;;;;;1.75;1.52;;;19.00;90.70;;;;;;626071;230;26568;-67
2022/08/02 00:45:15;;;;;;;2.25;1.40;;;19.00;90.20;;;;;;624847;230;26807;-67
2022/08/02 00:47:42;;;;;;;1.23;1.20;;;19.00;89.40;;;;;;625741;230;26537;-67
2022/08/02 00:50:10;;;;;;;1.75;1.10;;;19.00;88.40;;;;;;625536;229;26825;-67
2022/08/02 00:52:37;;;;;;;1.48;1.27;;;19.00;88.00;;;;;;625447;229;26616;-67
2022/08/02 00:55:05;;;;;;;1.50;1.40;;;19.00;87.20;;;;;;625498;229;26837;-67
2022/08/02 00:57:32;;;;;;;2.95;1.58;;;19.00;87.30;;;;;;625377;230;26596;-67
2022/08/02 00:59:59;;;;;;;2.15;1.55;;;19.00;87.60;;;;;;625183;230;26805;-67
2022/08/02 01:02:27;;;;;;;1.23;1.10;;;19.00;87.50;;;;;;625129;229;26537;-67
2022/08/02 01:04:55;;;;;;;1.98;1.52;;;19.00;87.60;;;;;;625192;229;26525;-67
2022/08/02 01:07:23;;;;;;;1.87;1.40;;;19.00;87.60;;;;;;625193;230;26540;-67
2022/08/02 01:09:51;;;;;;;1.52;1.30;;;18.90;87.30;;;;;;625192;229;26540;-67
2022/08/02 01:12:19;;;;;;;1.55;1.23;;;19.00;86.90;;;;;;625162;229;26549;-68
2022/08/02 01:14:46;;;;;;;1.33;1.23;;;18.90;86.50;;;;;;625089;229;26822;-67
2022/08/02 01:17:23;;;;;;;1.40;1.30;;;19.00;85.90;;;;;;624787;230;26587;-68
2022/08/02 01:19:57;;;;;;;1.00;1.00;;;19.00;86.10;;;;;;624301;230;26584;-67
2022/08/02 01:22:43;;;;;;;1.50;1.40;;;19.00;86.10;;;;;;624296;230;26586;-67
2022/08/02 01:25:22;;;;;;;2.70;1.12;;;19.00;86.40;;;;;;624545;230;26599;-67
2022/08/02 01:28:01;;;;;;;1.65;1.10;;;19.00;86.60;;;;;;624911;230;26590;-67
2022/08/02 01:30:28;;;;;;;1.12;1.12;;;19.00;86.30;;;;;;624359;230;26795;-67
2022/08/02 01:32:56;;;;;;;1.67;1.23;;;18.90;85.90;;;;;;624721;230;26621;-67
2022/08/02 01:35:23;;;;;;;1.30;1.20;;;18.90;86.20;;;;;;624605;230;26795;-67
2022/08/02 01:37:51;;;;;;;1.83;1.35;;;18.90;86.10;;;;;;624651;230;26590;-67
2022/08/02 01:40:21;;;;;;;1.77;1.40;;;19.00;86.30;;;;;;624728;230;26810;-67
2022/08/02 01:42:48;;;;;;;3.50;1.33;;;18.90;86.30;;;;;;624809;230;26618;-67
2022/08/02 01:45:16;;;;;;;2.47;1.37;;;18.90;85.60;;;;;;624657;230;26566;-67
2022/08/02 01:47:44;;;;;;;2.62;1.20;;;18.90;86.10;;;;;;624909;229;26583;-67
2022/08/02 01:50:11;;;;;;;1.48;1.25;;;18.90;86.00;;;;;;625076;228;26582;-67
2022/08/02 01:52:38;;;;;;;1.73;1.08;;;18.90;85.90;;;;;;626382;229;26548;-67
2022/08/02 01:55:06;;;;;;;1.30;1.20;;;18.90;85.30;;;;;;626050;230;26607;-67
2022/08/02 01:57:36;;;;;;;2.37;1.23;;;18.90;84.60;;;;;;626122;229;26509;-67
2022/08/02 02:00:04;;;;;;;1.30;1.20;;;18.90;84.30;;;;;;625732;230;26510;-67
2022/08/02 02:02:31;;;;;;;1.55;1.30;;;18.90;84.50;;;;;;625560;230;28554;-67
2022/08/02 02:04:58;;;;;;;1.60;1.23;;;18.90;83.20;;;;;;625818;229;26595;-67
2022/08/02 02:07:25;;;;;;;1.67;1.20;;;18.90;82.70;;;;;;625772;229;26589;-67
2022/08/02 02:09:52;;;;;;;2.15;1.08;;;18.80;82.90;;;;;;625286;229;26561;-67
2022/08/02 02:12:20;;;;;;;1.20;1.20;;;18.90;81.70;;;;;;625133;230;26763;-67
2022/08/02 02:14:47;;;;;;;1.30;1.20;;;18.80;80.80;;;;;;625256;229;26754;-67
2022/08/02 02:17:15;;;;;;;1.70;1.20;;;18.80;80.40;;;;;;625171;230;26534;-68
2022/08/02 02:19:42;;;;;;;1.15;1.15;;;18.80;81.30;;;;;;625224;230;26730;-68
2022/08/02 02:22:09;;;;;;;2.22;1.10;;;18.90;79.40;;;;;;625163;230;26522;-68
2022/08/02 02:24:37;;;;;;;1.83;1.40;;;18.90;80.00;;;;;;625271;230;26618;-68
2022/08/02 02:27:05;;;;;;;1.75;1.30;;;18.80;79.80;;;;;;625097;229;26564;-67
2022/08/02 02:29:32;;;;;;;2.28;1.37;;;18.80;78.50;;;;;;624899;230;26550;-68
2022/08/02 02:31:59;;;;;;;1.50;1.00;;;18.80;77.70;;;;;;624826;229;26827;-67
2022/08/02 02:34:29;;;;;;;1.77;1.27;;;18.80;77.40;;;;;;624851;229;26628;-67
2022/08/02 02:36:56;;;;;;;1.20;1.10;;;18.80;77.80;;;;;;624695;230;26585;-67
2022/08/02 02:39:25;;;;;;;2.17;1.23;;;18.90;75.40;;;;;;624800;229;26770;-67
2022/08/02 02:41:51;;;;;;;2.05;1.30;;;18.90;75.30;;;;;;624732;229;26913;-67
2022/08/02 02:44:18;;;;;;;1.60;1.25;;;18.90;75.70;;;;;;624822;230;26621;-67
2022/08/02 02:46:45;;;;;;;1.25;1.20;;;18.90;73.30;;;;;;624737;230;26807;-68
2022/08/02 02:49:12;;;;;;;2.10;1.00;;;18.90;74.00;;;;;;624723;230;26593;-68
2022/08/02 02:51:40;;;;;;;1.95;1.25;;;18.90;73.30;;;;;;624785;229;26800;-67
2022/08/02 02:54:08;;;;;;;1.45;1.10;;;18.90;72.30;;;;;;625068;230;26599;-68
2022/08/02 02:56:38;;;;;;;1.95;1.20;;;18.90;71.00;;;;;;625179;229;26502;-67
2022/08/02 02:59:05;;;;;;;1.35;1.10;;;18.90;70.50;;;;;;625188;230;26558;-68
2022/08/02 03:01:33;;;;;;;1.25;1.08;;;18.80;70.50;;;;;;625114;230;26571;-68
2022/08/02 03:04:00;;;;;;;2.90;1.40;;;18.80;70.50;;;;;;626951;228;26547;-67
2022/08/02 03:06:27;;;;;;;2.62;1.50;;;18.80;71.10;;;;;;626321;230;26568;-68
2022/08/02 03:08:55;;;;;;;2.03;1.42;;;18.60;72.50;;;;;;626097;229;26504;-67
2022/08/02 03:11:23;;;;;;;1.62;1.02;;;18.40;72.60;;;;;;625726;229;26539;-67
2022/08/02 03:13:52;;;;;;;1.08;1.00;;;18.30;74.10;;;;;;625466;229;26611;-67
2022/08/02 03:16:19;;;;;;;1.77;1.08;;;18.20;75.80;;;;;;625455;229;26588;-66
2022/08/02 03:18:47;;;;;;;1.45;1.12;;;18.10;75.70;;;;;;625449;230;26577;-67
2022/08/02 03:21:14;;;;;;;2.67;1.33;;;18.00;79.60;;;;;;625287;229;26532;-67
2022/08/02 03:23:41;;;;;;;1.15;1.10;;;17.90;81.40;;;;;;625208;229;26804;-67
2022/08/02 03:26:08;;;;;;;3.90;1.25;;;17.90;83.80;;;;;;625211;230;26533;-67
2022/08/02 03:28:35;;;;;;;3.37;1.20;;;17.80;85.40;;;;;;625166;229;26763;-67
2022/08/02 03:31:03;;;;;;;3.05;1.20;;;17.70;87.10;;;;;;625219;229;26537;-67
2022/08/02 03:33:30;;;;;;;1.40;1.30;;;17.70;89.30;;;;;;625081;229;26808;-66
2022/08/02 03:35:57;;;;;;;1.67;1.40;;;17.60;90.30;;;;;;625221;229;26537;-66
2022/08/02 03:38:24;;;;;;;2.15;1.30;;;17.50;90.60;;;;;;624972;230;26816;-66
2022/08/02 03:40:51;;;;;;;1.52;1.30;;;17.50;90.90;;;;;;624792;229;26585;-66
2022/08/02 03:43:19;;;;;;;2.37;1.37;;;17.40;91.00;;;;;;624822;229;26798;-67
2022/08/02 03:45:48;;;;;;;1.42;1.23;;;17.30;92.40;;;;;;624774;230;26581;-67
2022/08/02 03:48:15;;;;;;;3.42;1.10;;;17.30;92.40;;;;;;624870;229;26676;-67
2022/08/02 03:50:42;;;;;;;1.37;1.27;;;17.20;92.60;;;;;;624898;229;26789;-67
2022/08/02 03:53:09;;;;;;;2.03;1.35;;;17.10;93.00;;;;;;624877;229;26637;-67
2022/08/02 03:55:37;;;;;;;1.25;1.08;;;17.10;93.30;;;;;;624873;230;27277;-67
2022/08/02 03:58:04;;;;;;;1.37;1.27;;;17.20;93.60;;;;;;624891;229;26593;-67
2022/08/02 04:00:31;;;;;;;1.25;1.10;;;17.30;93.30;;;;;;624775;229;26828;-67
2022/08/02 04:02:59;;;;;;;2.37;1.33;;;17.40;93.10;;;;;;624697;229;26586;-67
2022/08/02 04:05:27;;;;;;;1.75;1.25;;;17.70;92.30;;;;;;624651;230;26586;-67
2022/08/02 04:07:56;;;;;;;1.17;0.93;;;17.80;92.00;;;;;;624818;229;26577;-67
2022/08/02 04:10:23;;;;;;;2.83;1.20;;;17.90;91.70;;;;;;624759;229;26594;-67
2022/08/02 04:12:50;;;;;;;1.73;1.35;;;17.90;91.70;;;;;;624829;224;26622;-67
2022/08/02 04:15:17;;;;;;;1.37;1.27;;;17.90;91.20;;;;;;626541;228;26544;-67
2022/08/02 04:17:45;;;;;;;1.25;1.15;;;17.80;91.00;;;;;;626141;229;26838;-67
2022/08/02 04:20:14;;;;;;;1.77;1.20;;;17.80;90.10;;;;;;625513;230;26543;-67
2022/08/02 04:22:56;;;;;;;1.23;1.10;;;17.80;88.30;;;;;;625255;230;26791;-67
2022/08/02 04:25:23;;;;;;;1.30;1.20;;;17.80;83.20;;;;;;625342;230;26579;-67
2022/08/02 04:27:51;;;;;;;1.42;1.30;;;17.70;83.70;;;;;;625526;229;26575;-67
2022/08/02 04:30:19;;;;;;;1.40;1.30;;;17.70;84.30;;;;;;625483;230;26616;-67
2022/08/02 04:32:47;;;;;;;1.98;1.15;;;17.70;85.00;;;;;;625260;229;26557;-67
2022/08/02 04:35:15;;;;;;;1.08;1.02;;;17.60;87.20;;;;;;625133;229;26537;-67
2022/08/02 04:37:43;;;;;;;1.85;1.30;;;17.60;87.30;;;;;;625212;229;26540;-67
2022/08/02 04:40:10;;;;;;;2.78;1.30;;;17.60;87.30;;;;;;625244;229;26542;-67
2022/08/02 04:42:38;;;;;;;2.72;1.30;;;17.50;87.20;;;;;;625223;229;26569;-67
2022/08/02 04:45:07;;;;;;;2.78;1.30;;;17.50;88.10;;;;;;625193;230;26770;-67
2022/08/02 04:47:34;;;;;;;1.67;1.30;;;17.40;88.40;;;;;;625188;229;26510;-67
2022/08/02 04:50:01;;;;;;;2.45;1.80;;;17.40;89.10;;;;;;625038;229;26779;-67
2022/08/02 04:52:28;;;;;;;1.45;1.27;;;17.40;89.60;;;;;;624806;230;26617;-67
2022/08/02 04:54:55;;;;;;;4.85;1.25;;;17.40;90.00;;;;;;624837;229;26795;-67
2022/08/02 04:59:56;;;;;;;2.72;1.33;;;17.40;89.80;;;;;;624817;229;26590;-67
2022/08/02 05:02:23;;;;;;;5.05;1.70;;;17.40;91.00;;;;;;624851;229;26596;-67
2022/08/02 05:04:52;;;;;;;2.92;1.40;;;17.40;91.30;;;;;;624947;230;26618;-67
2022/08/02 05:07:19;;;;;;;2.20;1.30;;;17.40;91.30;;;;;;624911;230;26599;-67
2022/08/02 05:09:47;;;;;;;3.90;1.80;;;17.50;91.50;;;;;;624923;224;26569;-67
2022/08/02 05:12:15;;;;;;;2.55;1.35;;;17.50;91.50;;;;;;624792;230;26585;-67
2022/08/02 05:14:42;;;;;;;1.40;1.27;;;17.50;91.50;;;;;;624848;230;26562;-67
2022/08/02 05:17:10;;;;;;;2.15;1.50;;;17.60;91.40;;;;;;624825;229;26583;-67
2022/08/02 05:19:39;;;;;;;1.30;1.20;;;17.60;90.60;;;;;;624897;230;26625;-67
2022/08/02 05:22:07;;;;;;;2.10;1.50;;;17.60;89.60;;;;;;624874;229;26589;-67
2022/08/02 05:24:35;;;;;;;1.95;1.37;;;17.70;89.80;;;;;;624844;229;26610;-67
2022/08/02 05:27:02;;;;;;;3.92;1.73;;;17.70;89.90;;;;;;626549;228;26606;-67
2022/08/02 05:29:29;;;;;;;2.22;1.58;;;17.80;89.60;;;;;;626047;229;27299;-67
2022/08/02 05:31:56;;;;;;;2.92;1.75;;;17.90;89.10;;;;;;625782;229;26558;-66
2022/08/02 05:34:24;;;;;;;2.10;1.45;;;18.00;88.30;;;;;;625680;229;26831;-67
2022/08/02 05:36:51;;;;;;;1.77;1.42;;;18.10;87.20;;;;;;625549;229;26586;-67
2022/08/02 05:39:18;;;;;;;3.12;1.65;;;18.10;86.80;;;;;;625468;224;26805;-67
2022/08/02 05:41:45;;;;;;;2.08;1.58;;;18.20;84.10;;;;;;625478;229;26579;-67
2022/08/02 05:44:12;;;;;;;2.45;1.55;;;18.30;81.10;;;;;;625296;229;26573;-67
2022/08/02 05:46:40;;;;;;;2.17;1.62;;;18.70;78.00;;;;;;625165;229;26541;-67
2022/08/02 05:49:08;;;;;;;3.30;1.65;;;18.70;76.60;;;;;;625199;230;26557;-66
2022/08/02 05:51:37;;;;;;;2.75;1.80;;;18.70;77.40;;;;;;625169;229;26762;-67
2022/08/02 05:54:09;;;;;;;4.28;2.05;;;18.80;76.30;;;;;;625143;230;26581;-67
2022/08/02 05:56:38;;;;;;;2.45;1.77;;;18.80;76.30;;;;;;625091;230;26809;-66
2022/08/02 05:59:12;;;;;;;4.72;1.87;;;19.10;76.60;;;;;;625782;226;26534;-67
2022/08/02 06:01:40;;;;;;;4.75;2.00;;;19.10;76.60;;;;;;624736;230;26584;-67
2022/08/02 06:04:07;;;;;;;4.05;1.90;;;19.30;75.50;;;;;;606202;235;26842;-67
2022/08/02 06:06:34;;;;;;;3.55;1.90;;;19.30;75.80;;;;;;611070;234;26609;-67
2022/08/02 06:09:05;;;;;;;2.70;1.60;;;19.60;74.70;;;;;;625602;227;26790;-67
2022/08/02 06:11:33;;;;;;;2.80;1.87;;;19.80;73.50;;;;;;627053;227;26592;-68
2022/08/02 06:14:01;;;;;;;3.60;1.80;;;19.90;71.80;;;;;;629661;223;26603;-68
2022/08/02 06:16:28;;;;;;;3.45;1.90;;;19.80;71.60;;;;;;629853;227;26830;-69
2022/08/02 06:18:56;;;;;;;6.47;2.30;;;20.00;70.70;;;;;;625243;230;26617;-68
2022/08/02 06:21:23;;;;;;;5.07;2.00;;;20.10;70.00;;;;;;604173;235;26845;-68
2022/08/02 06:23:50;;;;;;;4.80;2.22;;;20.30;69.40;;;;;;612840;234;26615;-68
2022/08/02 06:26:17;;;;;;;4.70;1.90;;;20.40;68.50;;;;;;612893;233;26582;-68
2022/08/02 06:28:46;;;;;;;6.47;2.20;;;20.50;67.50;;;;;;612232;233;26547;-68
2022/08/02 06:31:13;;;;;;;4.45;2.15;;;20.50;67.50;;;;;;614983;234;26566;-68
2022/08/02 06:33:41;;;;;;;10.80;2.28;;;20.80;66.00;;;;;;612854;234;26619;-68
2022/08/02 06:36:15;;;;;;;3.40;2.03;;;20.80;63.30;;;;;;630815;226;26529;-67
2022/08/02 06:38:42;;;;;;;2.95;1.87;;;20.80;63.20;;;;;;629265;224;26565;-68
2022/08/02 06:41:10;;;;;;;5.00;2.12;;;20.90;62.90;;;;;;626366;227;26797;-68
2022/08/02 06:43:44;;;;;;;6.78;2.30;;;21.00;63.50;;;;;;606136;234;26554;-68
2022/08/02 06:46:11;;;;;;;2.25;1.65;;;21.00;61.30;;;;;;629065;227;26556;-68
2022/08/02 06:48:39;;;;;;;2.67;1.80;;;21.10;62.40;;;;;;635760;225;26541;-68
2022/08/02 06:51:07;;;;;;;2.03;1.58;;;21.10;62.40;;;;;;626924;225;26565;-68
2022/08/02 06:53:34;;;;;;;2.55;1.48;;;21.20;60.60;;;;;;625471;225;26797;-68
2022/08/02 06:56:01;;;;;;;2.05;1.40;;;21.40;60.30;;;;;;608463;234;26815;-68
2022/08/02 06:58:28;;;;;;;2.22;1.58;;;21.50;59.80;;;;;;613103;234;26607;-68
2022/08/02 07:00:55;;;;;;;3.10;1.77;;;21.60;60.20;;;;;;626074;226;26767;-68
2022/08/02 07:03:24;;;;;;;1.75;1.30;;;21.70;59.80;;;;;;633176;226;26666;-68
2022/08/02 07:05:50;;;;;;;3.00;1.60;;;21.80;59.30;;;;;;627913;227;27176;-68
2022/08/02 07:08:17;;;;;;;2.35;1.55;;;21.80;59.40;;;;;;628498;227;26541;-68
2022/08/02 07:10:44;;;;;;;1.62;1.50;;;21.90;59.20;;;;;;625674;230;26831;-68
2022/08/02 07:13:11;;;;;;;1.45;1.30;;;21.90;58.90;;;;;;635361;226;26576;-68
2022/08/02 07:15:39;;;;;;;1.98;1.40;;;21.80;59.20;;;;;;632061;226;26750;-68
2022/08/02 07:18:07;;;;;;;2.45;1.70;;;21.70;58.90;;;;;;625034;229;26595;-68
2022/08/02 07:20:34;;;;;;;4.68;1.77;;;21.50;58.80;;;;;;630091;227;26513;-68
2022/08/02 07:23:02;;;;;;;1.37;1.27;;;21.40;59.10;;;;;;635371;222;26578;-68
2022/08/02 07:25:30;;;;;;;3.75;1.85;;;21.50;59.00;;;;;;634458;225;26513;-68
2022/08/02 07:27:58;;;;;;;2.35;1.77;;;21.40;58.90;;;;;;625021;230;26582;-68
2022/08/02 07:30:25;;;;;;;2.72;1.70;;;21.30;59.20;;;;;;632140;226;26582;-68
2022/08/02 07:32:52;;;;;;;3.33;1.42;;;21.70;59.30;;;;;;635259;226;26786;-68
2022/08/02 07:35:20;;;;;;;5.87;1.80;;;21.70;58.70;;;;;;628120;225;26595;-68
2022/08/02 07:37:47;;;;;;;3.08;1.67;;;21.90;59.10;;;;;;637066;225;26731;-68
2022/08/02 07:40:14;;;;;;;2.95;1.60;;;22.00;58.00;;;;;;628774;227;26589;-68
2022/08/02 07:42:41;;;;;;;2.40;1.67;;;22.20;57.90;;;;;;624727;230;26914;-68
2022/08/02 07:45:08;;;;;;;1.55;1.45;;;22.20;57.80;;;;;;624672;229;26607;-69
2022/08/02 07:47:37;;;;;;;1.73;1.55;;;22.10;57.10;;;;;;624740;229;26628;-68
2022/08/02 07:50:05;;;;;;;3.03;1.60;;;22.20;56.70;;;;;;632192;225;26618;-68
2022/08/02 07:52:32;;;;;;;4.87;1.60;;;22.20;56.70;;;;;;630745;225;26596;-68
2022/08/02 07:55:00;;;;;;;2.15;1.62;;;22.30;56.70;;;;;;625997;225;26879;-68
2022/08/02 07:57:26;;;;;;;5.37;1.65;;;22.20;56.00;;;;;;625651;230;26574;-68
2022/08/02 07:59:54;;;;;;;3.45;1.60;;;22.20;56.10;;;;;;605844;235;26799;-66
2022/08/02 08:02:23;;;;;;;3.10;1.33;;;22.00;56.50;;;;;;628939;227;26599;-66
2022/08/02 08:04:48;;;;;;;5.07;1.50;;;22.20;56.00;;;;;;625402;230;27062;-69
2022/08/02 08:07:16;;;;;;;85.22;15.27;;;22.20;55.40;;;;;;636376;225;26530;-66
2022/08/02 08:09:46;;;;;;;108.30;22.62;;;22.10;54.80;;;;;;624946;230;26521;-66
2022/08/02 08:12:12;;;;;;;130.48;27.52;;;22.00;54.70;;;;;;609178;234;26610;-68
2022/08/02 08:14:39;;;;;;;118.87;27.13;;;22.10;55.20;;;;;;613062;234;26597;-69
2022/08/02 08:17:07;;;;;;;114.72;25.23;;;22.20;55.10;;;;;;634095;226;26556;-67
2022/08/02 08:19:34;;;;;;;36.15;10.45;;;22.10;55.60;;;;;;628814;226;26502;-66
2022/08/02 08:22:02;;;;;;;84.05;20.62;;;22.30;56.40;;;;;;630390;225;26546;-67
2022/08/02 08:24:30;;;;;;;75.03;18.17;;;22.20;55.20;;;;;;610014;234;26591;-66
2022/08/02 08:26:58;;;;;;;30.75;8.98;;;22.10;55.40;;;;;;636592;222;26517;-66
2022/08/02 08:29:26;;;;;;;33.90;7.25;;;22.20;55.50;;;;;;625080;229;26585;-66
2022/08/02 08:31:54;;;;;;;20.73;6.03;;;22.30;55.10;;;;;;605109;236;26571;-66
2022/08/02 08:34:23;;;;;;;25.75;6.93;;;22.30;55.60;;;;;;633952;227;26645;-66
2022/08/02 08:36:50;;;;;;;36.90;8.88;;;22.50;55.60;;;;;;633991;226;26586;-66
2022/08/02 08:39:18;;;;;;;22.55;6.22;;;22.70;56.20;;;;;;634529;225;26593;-66
2022/08/02 08:41:46;;;;;;;6.28;2.35;;;22.80;55.70;;;;;;625209;226;26606;-65
2022/08/02 08:44:14;;;;;;;5.05;1.92;;;22.80;55.70;;;;;;606261;236;26616;-66
2022/08/02 08:46:41;;;;;;;2.87;1.30;;;22.90;54.70;;;;;;626599;225;26615;-65
2022/08/02 08:49:09;;;;;;;1.95;1.10;;;22.70;54.40;;;;;;625433;224;26792;-66
2022/08/02 08:51:36;;;;;;;2.83;1.52;;;22.80;55.10;;;;;;626974;226;26559;-64
2022/08/02 08:54:03;;;;;;;2.72;1.48;;;22.70;54.60;;;;;;627503;222;26961;-65
2022/08/02 08:56:32;;;;;;;1.58;1.30;;;22.70;54.30;;;;;;609121;233;26579;-65
2022/08/02 08:58:59;;;;;;;4.07;1.87;;;22.80;54.70;;;;;;612824;233;26611;-65
2022/08/02 09:01:27;;;;;;;2.37;1.30;;;23.10;54.20;;;;;;613419;233;26639;-66
2022/08/02 09:03:55;;;;;;;2.53;1.10;;;23.20;53.70;;;;;;614024;232;26607;-65
2022/08/02 09:06:23;;;;;;;2.37;1.33;;;23.10;53.80;;;;;;633473;220;26563;-66
2022/08/02 09:08:50;;;;;;;3.97;1.23;;;23.10;53.80;;;;;;620604;231;26558;-66
2022/08/02 09:11:18;;;;;;;4.05;1.30;;;23.20;53.90;;;;;;634317;226;26810;-66
2022/08/02 09:13:51;;;;;;;1.10;0.98;;;23.20;53.50;;;;;;625468;230;26608;-66
2022/08/02 09:16:28;;;;;;;2.80;1.40;;;23.10;53.50;;;;;;607267;235;26582;-66
2022/08/02 09:18:56;;;;;;;0.88;0.88;;;23.00;53.70;;;;;;634023;227;26576;-66
2022/08/02 09:21:24;;;;;;;1.40;1.30;;;23.00;53.70;;;;;;624974;230;26552;-66
2022/08/02 09:23:51;;;;;;;3.53;1.27;;;23.00;53.70;;;;;;629832;225;26816;-66
2022/08/02 09:26:19;;;;;;;2.17;1.33;;;23.00;53.80;;;;;;630116;225;26620;-66
2022/08/02 09:28:47;;;;;;;3.85;1.37;;;23.50;54.30;;;;;;608661;236;26559;-66
2022/08/02 09:31:15;;;;;;;2.78;1.20;;;23.60;53.20;;;;;;634238;227;26571;-67
2022/08/02 09:33:42;;;;;;;2.30;1.23;;;23.60;53.00;;;;;;634262;223;26563;-67
2022/08/02 09:36:11;;;;;;;3.00;1.52;;;23.70;53.50;;;;;;629218;226;27254;-66
2022/08/02 09:38:38;;;;;;;3.00;1.27;;;23.70;53.10;;;;;;624403;230;26803;-66
2022/08/02 09:41:05;;;;;;;2.83;1.77;;;23.80;53.60;;;;;;634564;225;26557;-66
2022/08/02 09:43:34;;;;;;;2.78;1.40;;;23.70;53.10;;;;;;632375;226;26936;-66
2022/08/02 09:46:09;;;;;;;1.77;1.23;;;23.60;53.00;;;;;;630714;226;26815;-66
2022/08/02 09:48:36;;;;;;;1.33;1.10;;;23.60;52.50;;;;;;628491;224;26570;-66
2022/08/02 09:51:05;;;;;;;2.25;1.20;;;23.40;52.60;;;;;;624969;226;26562;-66
2022/08/02 09:53:39;;;;;;;1.85;1.27;;;23.60;53.10;;;;;;608552;234;26630;-66
2022/08/02 09:56:07;;;;;;;1.73;0.77;;;23.50;53.00;;;;;;613054;230;26607;-66
2022/08/02 09:58:38;;;;;;;1.92;0.82;;;23.60;52.60;;;;;;624710;227;26596;-66
2022/08/02 10:01:06;;;;;;;1.80;1.00;;;23.60;52.50;;;;;;632128;227;26617;-66
2022/08/02 10:03:33;;;;;;;2.12;1.35;;;23.60;52.70;;;;;;627257;228;26607;-66
2022/08/02 10:06:01;;;;;;;1.98;1.00;;;23.70;53.00;;;;;;633013;227;26799;-67
2022/08/02 10:08:29;;;;;;;0.85;0.85;;;23.70;52.30;;;;;;626989;226;26589;-66
2022/08/02 10:10:59;;;;;;;2.05;1.08;;;23.70;52.30;;;;;;630389;228;26965;-67
2022/08/02 10:13:27;;;;;;;2.28;1.37;;;23.60;52.50;;;;;;628800;227;26602;-66
2022/08/02 10:15:55;;;;;;;2.50;1.40;;;23.60;53.30;;;;;;629079;225;27299;-67
2022/08/02 10:18:23;;;;;;;1.20;1.05;;;23.60;52.70;;;;;;630425;227;26568;-67
2022/08/02 10:20:50;;;;;;;1.35;1.08;;;23.70;52.50;;;;;;626809;225;26794;-67
2022/08/02 10:23:17;;;;;;;3.85;1.00;;;23.80;52.40;;;;;;634561;222;26599;-67
2022/08/02 10:25:44;;;;;;;1.35;1.10;;;24.00;52.10;;;;;;634456;222;26870;-67
2022/08/02 10:28:12;;;;;;;1.95;1.10;;;24.20;51.60;;;;;;628596;226;26590;-67
2022/08/02 10:30:39;;;;;;;1.45;1.00;;;24.10;51.20;;;;;;625398;230;26579;-67
2022/08/02 10:33:08;;;;;;;1.95;1.10;;;23.80;51.90;;;;;;624900;224;26560;-67
2022/08/02 10:35:36;;;;;;;1.30;1.20;;;23.90;51.90;;;;;;605017;233;26611;-66
2022/08/02 10:38:06;;;;;;;1.73;1.15;;;23.90;51.90;;;;;;628681;227;26837;-66
2022/08/02 10:40:42;;;;;;;4.43;1.73;;;24.00;51.80;;;;;;624576;228;26755;-67
2022/08/02 10:43:09;;;;;;;1.05;0.95;;;24.00;52.00;;;;;;635063;225;26776;-67
2022/08/02 10:45:38;;;;;;;0.95;0.90;;;23.90;51.70;;;;;;625359;229;26546;-67
2022/08/02 10:48:10;;;;;;;1.67;1.10;;;23.80;51.40;;;;;;608276;235;26672;-67
2022/08/02 10:50:52;;;;;;;1.10;1.00;;;23.80;51.30;;;;;;612607;234;26849;-66
2022/08/02 10:53:25;;;;;;;1.73;1.10;;;23.90;51.20;;;;;;613095;233;26651;-67
2022/08/02 10:55:52;;;;;;;1.75;1.25;;;24.00;51.10;;;;;;628343;227;26549;-67
2022/08/02 10:58:20;;;;;;;1.33;1.23;;;24.10;51.20;;;;;;624775;229;26603;-67
2022/08/02 11:00:47;;;;;;;0.85;0.85;;;24.00;51.50;;;;;;611317;235;26568;-67
2022/08/02 11:03:27;;;;;;;2.08;1.40;;;24.00;51.50;;;;;;613015;233;26813;-67
2022/08/02 11:06:15;;;;;;;2.30;1.50;;;24.00;51.00;;;;;;628358;228;26554;-67
2022/08/02 11:08:43;;;;;;;1.37;0.90;;;24.20;51.20;;;;;;631142;227;26542;-65
2022/08/02 11:11:18;;;;;;;3.53;1.25;;;24.30;50.20;;;;;;626926;227;26582;-66
2022/08/02 11:13:57;;;;;;;1.60;1.10;;;24.20;50.10;;;;;;629187;227;26771;-65
2022/08/02 11:16:25;;;;;;;1.42;1.00;;;24.30;49.80;;;;;;630605;227;26545;-65
2022/08/02 11:19:07;;;;;;;2.65;1.20;;;24.50;49.80;;;;;;631123;226;26515;-65
2022/08/02 11:21:35;;;;;;;3.72;1.20;;;24.50;49.80;;;;;;628226;227;26591;-65
2022/08/02 11:24:14;;;;;;;1.48;0.90;;;24.50;49.20;;;;;;629576;222;26828;-65
2022/08/02 11:26:41;;;;;;;5.18;1.12;;;24.60;49.30;;;;;;626154;229;26532;-65
2022/08/02 11:29:08;;;;;;;1.77;0.90;;;24.60;49.80;;;;;;626346;223;26750;-65
2022/08/02 11:31:38;;;;;;;1.10;1.00;;;24.60;49.40;;;;;;607709;233;26623;-65
2022/08/02 11:34:05;;;;;;;1.87;1.15;;;24.60;49.80;;;;;;615132;231;26638;-65
2022/08/02 11:36:33;;;;;;;4.28;1.20;;;25.00;48.40;;;;;;627823;226;26567;-65
2022/08/02 11:39:09;;;;;;;1.23;1.00;;;25.00;48.40;;;;;;625274;230;26550;-65
2022/08/02 11:41:36;;;;;;;1.95;0.88;;;25.10;47.90;;;;;;626220;226;26513;-65
2022/08/02 11:44:03;;;;;;;0.68;0.68;;;25.20;47.60;;;;;;629806;223;26549;-65
2022/08/02 11:46:31;;;;;;;3.42;1.20;;;25.30;47.00;;;;;;633607;226;26559;-65
2022/08/02 11:48:59;;;;;;;2.83;1.33;;;25.30;47.70;;;;;;634208;226;26553;-64
2022/08/02 11:51:26;;;;;;;2.50;1.27;;;25.30;47.70;;;;;;624289;230;26544;-66
2022/08/02 11:53:53;;;;;;;3.70;1.40;;;25.30;47.80;;;;;;625383;230;26598;-65
2022/08/02 11:56:27;;;;;;;1.12;1.02;;;25.40;47.60;;;;;;625616;230;26836;-65
2022/08/02 11:59:01;;;;;;;2.05;0.90;;;25.40;46.50;;;;;;624837;227;26548;-65
2022/08/02 12:01:28;;;;;;;1.15;0.82;;;25.50;45.30;;;;;;625513;230;26546;-64
2022/08/02 12:03:57;;;;;;;1.75;1.00;;;25.60;44.70;;;;;;624486;230;26840;-64
2022/08/02 12:06:23;;;;;;;1.35;1.00;;;25.70;45.30;;;;;;625148;230;26587;-64
2022/08/02 12:08:51;;;;;;;1.40;1.05;;;25.70;45.20;;;;;;634662;226;26619;-64
2022/08/02 12:11:19;;;;;;;1.95;1.75;;;25.80;45.10;;;;;;635220;226;26542;-64
2022/08/02 12:13:47;;;;;;;9.15;8.38;;;25.60;44.70;;;;;;635338;226;26616;-64
2022/08/02 12:21:22;;;;;;;104.78;93.80;;;25.80;45.60;;;;;;628556;225;26582;-64
2022/08/02 12:23:50;;;;;;;61.17;54.80;;;25.70;45.50;;;;;;637931;221;26544;-64
2022/08/02 12:26:17;;;;;;;13.62;12.32;;;26.10;45.70;;;;;;628709;225;26544;-64
2022/08/02 12:28:44;;;;;;;4.12;3.47;;;26.40;44.70;;;;;;625914;225;27469;-64
2022/08/02 12:31:13;;;;;;;89.47;80.70;;;26.40;44.30;;;;;;634920;225;26517;-64
2022/08/02 12:33:51;;;;;;;61.90;55.95;;;26.40;44.40;;;;;;628222;227;26579;-64
2022/08/02 12:36:20;;;;;;;10.43;9.50;;;27.20;44.20;;;;;;628523;225;26528;-63
2022/08/02 12:38:50;;;;;;;319.60;288.35;;;27.30;44.00;;;;;;635495;226;26534;-64
2022/08/02 12:41:18;;;;;;;62.55;56.33;;;27.30;44.10;;;;;;633541;225;26600;-64
2022/08/02 12:43:45;;;;;;;4.85;4.43;;;27.50;43.20;;;;;;630476;224;26617;-64
2022/08/02 12:46:18;;;;;;;68.80;61.88;;;27.70;43.30;;;;;;629514;226;26562;-63
2022/08/02 12:48:45;;;;;;;214.35;193.57;;;28.00;42.90;;;;;;632168;226;26792;-64
2022/08/02 12:51:24;;;;;;;422.65;380.87;;;28.30;42.60;;;;;;633216;226;26600;-65
2022/08/02 12:53:51;;;;;;;192.65;173.50;;;28.70;42.80;;;;;;625433;229;26616;-65
2022/08/02 12:56:28;;;;;;;235.50;211.95;;;29.30;41.00;;;;;;633723;225;26506;-65
2022/08/02 12:58:55;;;;;;;451.98;408.02;;;29.30;41.00;;;;;;631160;225;26565;-69